Time;durP1;ratioP1;P1;durP2;ratioP2;P2;SDS_P1;SDS_P2;PMS_P1;PMS_P2;Temp;Humidity;BMP_temperature;BMP_pressure;BME280_temperature;BME280_humidity;BME280_pressure;Samples;Min_cycle;Max_cycle;Signal;HPM_P1;HPM_P2
2023/04/16 00:02:11;;;;;;;4.25;1.52;;;;;;;;;;5060920;28;20139;-88
2023/04/16 00:04:36;;;;;;;3.13;1.60;;;;;;;;;;5077296;28;20036;-88
2023/04/16 00:07:01;;;;;;;2.42;1.48;;;;;;;;;;5072017;28;20055;-88
2023/04/16 00:09:27;;;;;;;3.85;1.77;;;;;;;;;;5073917;28;20082;-89
2023/04/16 00:11:52;;;;;;;4.05;1.60;;;;;;;;;;5093624;28;20028;-88
2023/04/16 00:14:18;;;;;;;3.60;1.60;;;;;;;;;;5093342;28;20028;-88
2023/04/16 00:16:53;;;;;;;3.10;1.67;;;;;;;;;;5092163;28;20031;-87
2023/04/16 00:19:19;;;;;;;3.03;1.67;;;;;;;;;;5077666;28;20024;-88
2023/04/16 00:21:44;;;;;;;4.35;1.80;;;;;;;;;;5076159;28;20034;-89
2023/04/16 00:24:10;;;;;;;3.65;2.00;;;;;;;;;;5093626;28;20032;-89
2023/04/16 00:26:39;;;;;;;6.63;2.40;;;;;;;;;;5058736;28;20035;-88
2023/04/16 00:29:05;;;;;;;3.90;2.10;;;;;;;;;;5092025;28;20028;-88
2023/04/16 00:31:32;;;;;;;4.93;2.42;;;;;;;;;;5094363;28;20035;-89
2023/04/16 00:33:58;;;;;;;3.55;2.00;;;;;;;;;;5076817;28;20062;-88
2023/04/16 00:36:25;;;;;;;4.40;1.88;;;;;;;;;;5075642;28;20023;-89
2023/04/16 00:38:54;;;;;;;4.60;2.33;;;;;;;;;;5077038;28;20020;-89
2023/04/16 00:41:20;;;;;;;6.15;2.40;;;;;;;;;;5094161;28;20490;-89
2023/04/16 00:43:45;;;;;;;4.72;2.42;;;;;;;;;;5096145;28;20024;-87
2023/04/16 00:46:11;;;;;;;5.15;2.45;;;;;;;;;;5097735;28;20066;-89
2023/04/16 00:48:37;;;;;;;4.40;2.28;;;;;;;;;;5098596;28;20039;-90
2023/04/16 00:51:07;;;;;;;4.45;2.40;;;;;;;;;;5080234;28;20122;-87
2023/04/16 00:53:33;;;;;;;6.43;2.65;;;;;;;;;;5080480;28;20119;-87
2023/04/16 00:56:02;;;;;;;4.55;2.60;;;;;;;;;;5097674;28;20399;-88
2023/04/16 00:58:27;;;;;;;3.65;2.45;;;;;;;;;;5078813;28;20020;-89
2023/04/16 01:00:53;;;;;;;5.00;2.60;;;;;;;;;;5096278;28;20030;-88
2023/04/16 01:03:18;;;;;;;7.25;2.80;;;;;;;;;;5095549;28;20049;-87
2023/04/16 01:05:44;;;;;;;5.05;2.70;;;;;;;;;;5079090;28;20081;-87
2023/04/16 01:08:17;;;;;;;3.20;2.28;;;;;;;;;;5078599;28;20048;-89
2023/04/16 01:10:42;;;;;;;4.85;2.47;;;;;;;;;;5096888;28;20115;-90
2023/04/16 01:13:08;;;;;;;5.32;2.60;;;;;;;;;;5097030;28;20109;-89
2023/04/16 01:15:33;;;;;;;6.18;3.03;;;;;;;;;;5096792;28;20035;-90
2023/04/16 01:17:58;;;;;;;5.47;3.05;;;;;;;;;;5078568;28;20036;-89
2023/04/16 01:20:24;;;;;;;4.38;2.65;;;;;;;;;;5095608;28;20111;-89
2023/04/16 01:22:49;;;;;;;4.47;2.50;;;;;;;;;;5078449;28;20437;-87
2023/04/16 01:25:15;;;;;;;4.53;2.53;;;;;;;;;;5096201;28;20489;-88
2023/04/16 01:27:40;;;;;;;5.40;2.72;;;;;;;;;;5096350;28;20108;-88
2023/04/16 01:30:06;;;;;;;3.67;2.50;;;;;;;;;;5095203;28;20492;-87
2023/04/16 01:32:32;;;;;;;3.70;2.50;;;;;;;;;;5078077;28;20111;-88
2023/04/16 01:34:57;;;;;;;6.07;2.80;;;;;;;;;;5096133;28;20120;-88
2023/04/16 01:37:23;;;;;;;5.95;2.72;;;;;;;;;;5096099;28;20032;-89
2023/04/16 01:39:48;;;;;;;4.13;2.60;;;;;;;;;;5061342;28;20047;-91
2023/04/16 01:42:14;;;;;;;4.40;2.60;;;;;;;;;;5078037;28;20028;-90
2023/04/16 01:44:39;;;;;;;6.30;2.72;;;;;;;;;;5078015;28;20525;-87
2023/04/16 01:47:04;;;;;;;7.22;2.95;;;;;;;;;;5077540;28;20036;-87
2023/04/16 01:49:30;;;;;;;4.15;2.40;;;;;;;;;;5095826;28;20032;-87
2023/04/16 01:51:55;;;;;;;4.80;2.45;;;;;;;;;;5078013;28;20044;-88
2023/04/16 01:54:20;;;;;;;5.45;2.80;;;;;;;;;;5095954;28;20028;-87
2023/04/16 01:56:46;;;;;;;5.55;3.10;;;;;;;;;;5095746;28;20035;-87
2023/04/16 01:59:11;;;;;;;6.22;2.60;;;;;;;;;;5077271;28;20119;-87
2023/04/16 02:01:37;;;;;;;5.90;2.75;;;;;;;;;;5095782;28;20048;-87
2023/04/16 02:04:03;;;;;;;4.70;2.55;;;;;;;;;;5095066;28;20051;-88
2023/04/16 02:06:28;;;;;;;4.43;2.60;;;;;;;;;;5096963;28;20067;-89
2023/04/16 02:08:53;;;;;;;6.90;2.90;;;;;;;;;;5077877;28;20420;-89
2023/04/16 02:11:20;;;;;;;4.43;2.40;;;;;;;;;;5095941;28;20637;-89
2023/04/16 02:13:45;;;;;;;4.45;2.63;;;;;;;;;;5094331;28;20038;-89
2023/04/16 02:16:10;;;;;;;8.32;3.22;;;;;;;;;;5095678;28;20032;-90
2023/04/16 02:18:36;;;;;;;5.43;3.00;;;;;;;;;;5094193;28;20039;-90
2023/04/16 02:21:01;;;;;;;4.30;2.78;;;;;;;;;;5094442;28;20048;-90
2023/04/16 02:23:27;;;;;;;9.07;3.33;;;;;;;;;;5077417;28;20028;-90
2023/04/16 02:25:52;;;;;;;5.43;2.97;;;;;;;;;;5095309;28;20028;-89
2023/04/16 02:28:17;;;;;;;5.70;2.80;;;;;;;;;;5095147;28;20059;-89
2023/04/16 02:30:43;;;;;;;5.70;3.20;;;;;;;;;;5095178;28;20031;-89
2023/04/16 02:33:10;;;;;;;5.30;3.13;;;;;;;;;;5095350;28;20056;-88
2023/04/16 02:35:37;;;;;;;5.28;3.10;;;;;;;;;;5093775;28;20028;-87
2023/04/16 02:38:03;;;;;;;4.90;2.88;;;;;;;;;;5093833;28;20059;-87
2023/04/16 02:40:29;;;;;;;6.85;3.42;;;;;;;;;;5093696;28;20020;-87
2023/04/16 02:42:55;;;;;;;5.70;3.10;;;;;;;;;;5093622;28;20467;-87
2023/04/16 02:45:21;;;;;;;6.55;3.25;;;;;;;;;;5077017;28;20043;-87
2023/04/16 02:47:47;;;;;;;6.80;2.85;;;;;;;;;;5093424;28;20024;-87
2023/04/16 02:50:12;;;;;;;4.78;2.88;;;;;;;;;;5093709;28;20020;-87
2023/04/16 02:52:38;;;;;;;5.15;3.28;;;;;;;;;;5095910;28;20053;-87
2023/04/16 02:55:04;;;;;;;4.97;2.83;;;;;;;;;;5099091;28;20036;-87
2023/04/16 02:57:29;;;;;;;5.03;3.28;;;;;;;;;;5099350;28;20043;-87
2023/04/16 02:59:55;;;;;;;6.10;3.13;;;;;;;;;;5096873;28;20028;-89
2023/04/16 03:02:20;;;;;;;5.45;3.13;;;;;;;;;;5094567;28;20107;-89
2023/04/16 03:04:46;;;;;;;5.68;2.72;;;;;;;;;;5095171;28;20363;-89
2023/04/16 03:07:12;;;;;;;5.43;3.17;;;;;;;;;;5093256;28;20056;-90
2023/04/16 03:09:38;;;;;;;7.50;3.65;;;;;;;;;;5093111;28;20089;-90
2023/04/16 03:12:04;;;;;;;6.38;3.35;;;;;;;;;;5076455;28;20035;-90
2023/04/16 03:14:30;;;;;;;5.90;3.38;;;;;;;;;;5076553;28;20039;-89
2023/04/16 03:16:56;;;;;;;7.15;3.60;;;;;;;;;;5094252;28;20039;-90
2023/04/16 03:19:21;;;;;;;7.18;3.28;;;;;;;;;;5094371;28;20024;-88
2023/04/16 03:21:47;;;;;;;6.75;3.85;;;;;;;;;;5092926;28;20043;-87
2023/04/16 03:24:12;;;;;;;6.53;3.50;;;;;;;;;;5092741;28;20036;-87
2023/04/16 03:26:37;;;;;;;7.15;3.65;;;;;;;;;;5093908;28;20032;-88
2023/04/16 03:29:03;;;;;;;6.35;3.50;;;;;;;;;;5092871;28;20024;-87
2023/04/16 03:31:28;;;;;;;10.40;3.78;;;;;;;;;;5076083;28;20047;-86
2023/04/16 03:33:54;;;;;;;5.53;3.45;;;;;;;;;;5094132;28;20538;-87
2023/04/16 03:36:19;;;;;;;6.60;3.70;;;;;;;;;;5092785;28;20040;-87
2023/04/16 03:38:45;;;;;;;5.45;3.15;;;;;;;;;;5076109;28;20028;-86
2023/04/16 03:41:10;;;;;;;7.15;4.00;;;;;;;;;;5093918;28;20035;-87
2023/04/16 03:43:35;;;;;;;6.75;3.53;;;;;;;;;;5094081;28;20085;-90
2023/04/16 03:46:01;;;;;;;6.40;3.40;;;;;;;;;;5092927;28;20028;-90
2023/04/16 03:48:26;;;;;;;7.00;3.85;;;;;;;;;;5075750;28;20028;-88
2023/04/16 03:50:51;;;;;;;8.50;3.58;;;;;;;;;;5092328;28;20050;-88
2023/04/16 03:53:17;;;;;;;7.47;4.18;;;;;;;;;;5076261;28;20060;-89
2023/04/16 03:55:42;;;;;;;9.40;3.55;;;;;;;;;;5075698;28;20087;-89
2023/04/16 03:58:08;;;;;;;7.93;3.95;;;;;;;;;;5094204;28;20024;-90
2023/04/16 04:00:34;;;;;;;7.43;3.90;;;;;;;;;;5075541;28;20024;-90
2023/04/16 04:02:59;;;;;;;7.18;3.80;;;;;;;;;;5093149;28;20028;-89
2023/04/16 04:05:25;;;;;;;5.28;3.70;;;;;;;;;;5095313;28;20028;-89
2023/04/16 04:07:50;;;;;;;6.68;3.70;;;;;;;;;;5106541;28;20059;-92
2023/04/16 04:10:15;;;;;;;6.43;4.07;;;;;;;;;;5097588;28;20040;-90
2023/04/16 04:12:41;;;;;;;8.20;4.07;;;;;;;;;;5092736;28;20474;-90
2023/04/16 04:15:07;;;;;;;8.88;3.90;;;;;;;;;;5093950;28;20089;-90
2023/04/16 04:17:33;;;;;;;6.03;4.00;;;;;;;;;;5092512;28;20115;-91
2023/04/16 04:19:58;;;;;;;5.55;3.78;;;;;;;;;;5075822;28;20036;-90
2023/04/16 04:22:23;;;;;;;6.82;3.83;;;;;;;;;;5077856;28;20024;-89
2023/04/16 04:24:49;;;;;;;7.88;3.88;;;;;;;;;;5096604;28;20024;-89
2023/04/16 04:27:14;;;;;;;6.45;4.15;;;;;;;;;;5098723;28;20060;-91
2023/04/16 04:29:39;;;;;;;5.50;3.50;;;;;;;;;;5097850;28;20035;-88
2023/04/16 04:32:05;;;;;;;5.35;3.28;;;;;;;;;;5079645;28;20035;-88
2023/04/16 04:34:30;;;;;;;7.68;4.13;;;;;;;;;;5079687;28;20139;-89
2023/04/16 04:36:56;;;;;;;7.68;4.15;;;;;;;;;;5096391;28;20039;-90
2023/04/16 04:39:21;;;;;;;5.03;3.60;;;;;;;;;;5096332;28;20024;-89
2023/04/16 04:41:47;;;;;;;5.97;3.97;;;;;;;;;;5082745;28;20024;-90
2023/04/16 04:44:12;;;;;;;7.13;3.70;;;;;;;;;;5097458;28;20103;-90
2023/04/16 04:46:39;;;;;;;6.07;3.80;;;;;;;;;;5096300;28;20047;-88
2023/04/16 04:49:05;;;;;;;6.78;3.60;;;;;;;;;;5078919;28;20119;-88
2023/04/16 04:51:30;;;;;;;7.00;3.67;;;;;;;;;;5079320;28;20538;-88
2023/04/16 04:53:56;;;;;;;5.55;3.55;;;;;;;;;;5096168;28;20055;-88
2023/04/16 04:56:21;;;;;;;5.88;3.85;;;;;;;;;;5096290;28;20032;-88
2023/04/16 04:58:48;;;;;;;5.30;3.30;;;;;;;;;;5062530;28;20115;-90
2023/04/16 05:01:14;;;;;;;6.32;3.50;;;;;;;;;;5078834;28;20035;-89
2023/04/16 05:03:40;;;;;;;7.47;3.78;;;;;;;;;;5095741;28;20032;-89
2023/04/16 05:06:06;;;;;;;5.50;3.35;;;;;;;;;;5098572;28;20048;-89
2023/04/16 05:08:31;;;;;;;5.63;3.60;;;;;;;;;;5082550;28;20063;-88
2023/04/16 05:10:56;;;;;;;9.10;3.78;;;;;;;;;;5079083;28;20486;-88
2023/04/16 05:13:22;;;;;;;7.13;3.38;;;;;;;;;;5095817;28;20085;-89
2023/04/16 05:15:47;;;;;;;7.00;3.50;;;;;;;;;;5096658;28;20029;-89
2023/04/16 05:18:13;;;;;;;5.78;3.60;;;;;;;;;;5096559;28;20052;-89
2023/04/16 05:20:38;;;;;;;4.97;3.17;;;;;;;;;;5095518;28;20024;-90
2023/04/16 05:23:04;;;;;;;6.20;3.40;;;;;;;;;;5095716;28;20359;-89
2023/04/16 05:25:29;;;;;;;7.47;3.50;;;;;;;;;;5096701;28;20039;-90
2023/04/16 05:27:54;;;;;;;6.03;3.45;;;;;;;;;;5061895;28;20055;-89
2023/04/16 05:30:20;;;;;;;6.88;3.85;;;;;;;;;;5061845;28;20035;-91
2023/04/16 05:32:45;;;;;;;5.97;3.47;;;;;;;;;;5077838;28;20040;-91
2023/04/16 05:35:11;;;;;;;6.38;3.17;;;;;;;;;;5060989;28;20032;-89
2023/04/16 05:37:36;;;;;;;6.25;3.70;;;;;;;;;;5078225;28;20035;-90
2023/04/16 05:40:02;;;;;;;5.60;3.30;;;;;;;;;;5096376;28;20025;-92
2023/04/16 05:42:28;;;;;;;5.68;3.25;;;;;;;;;;5096452;28;20028;-90
2023/04/16 05:44:53;;;;;;;7.38;3.83;;;;;;;;;;5078232;28;20081;-91
2023/04/16 05:47:19;;;;;;;5.55;3.33;;;;;;;;;;5078394;28;20031;-90
2023/04/16 05:49:44;;;;;;;5.38;3.08;;;;;;;;;;5077909;28;20055;-91
2023/04/16 05:52:09;;;;;;;5.43;3.38;;;;;;;;;;5095049;28;20039;-91
2023/04/16 05:54:35;;;;;;;4.68;3.50;;;;;;;;;;5094936;28;20059;-93
2023/04/16 05:57:01;;;;;;;6.40;3.55;;;;;;;;;;5096333;28;20024;-89
2023/04/16 05:59:26;;;;;;;5.97;3.97;;;;;;;;;;5077858;28;20024;-85
2023/04/16 06:01:52;;;;;;;6.18;3.67;;;;;;;;;;5094468;28;20082;-85
2023/04/16 06:04:17;;;;;;;6.78;3.78;;;;;;;;;;5077420;28;20024;-85
2023/04/16 06:06:42;;;;;;;8.18;4.22;;;;;;;;;;5094067;28;20044;-83
2023/04/16 06:09:09;;;;;;;7.50;3.97;;;;;;;;;;5095771;28;20032;-83
2023/04/16 06:11:34;;;;;;;10.07;3.97;;;;;;;;;;5080441;28;20069;-84
2023/04/16 06:14:00;;;;;;;8.35;4.30;;;;;;;;;;5096316;28;20059;-86
2023/04/16 06:16:25;;;;;;;7.45;3.92;;;;;;;;;;5095722;28;20395;-83
2023/04/16 06:18:51;;;;;;;9.95;3.88;;;;;;;;;;5095817;28;20081;-85
2023/04/16 06:21:16;;;;;;;6.40;3.92;;;;;;;;;;5095084;28;20054;-83
2023/04/16 06:23:41;;;;;;;8.65;4.10;;;;;;;;;;5077755;28;20490;-82
2023/04/16 06:26:07;;;;;;;10.50;4.07;;;;;;;;;;5095312;28;20036;-84
2023/04/16 06:28:32;;;;;;;6.72;3.88;;;;;;;;;;5077200;28;20418;-84
2023/04/16 06:30:58;;;;;;;5.28;3.58;;;;;;;;;;5060265;28;20070;-84
2023/04/16 06:33:24;;;;;;;6.10;3.55;;;;;;;;;;5076934;28;20030;-84
2023/04/16 06:35:49;;;;;;;5.25;3.10;;;;;;;;;;5060214;28;20122;-84
2023/04/16 06:38:15;;;;;;;7.50;3.97;;;;;;;;;;5076920;28;20032;-84
2023/04/16 06:40:40;;;;;;;8.30;3.70;;;;;;;;;;5094823;28;20093;-84
2023/04/16 06:43:06;;;;;;;5.53;3.50;;;;;;;;;;5094955;28;20034;-84
2023/04/16 06:45:31;;;;;;;7.32;3.83;;;;;;;;;;5094390;28;20032;-84
2023/04/16 06:48:02;;;;;;;5.40;3.08;;;;;;;;;;5094701;28;20020;-85
2023/04/16 06:50:27;;;;;;;6.07;3.58;;;;;;;;;;5095022;28;20070;-82
2023/04/16 06:52:54;;;;;;;6.45;3.60;;;;;;;;;;5095088;28;20032;-81
2023/04/16 06:55:19;;;;;;;8.73;4.00;;;;;;;;;;5059832;28;20034;-82
2023/04/16 06:57:45;;;;;;;6.85;3.72;;;;;;;;;;5076401;28;20099;-82
2023/04/16 07:00:11;;;;;;;8.00;4.13;;;;;;;;;;5094364;28;20024;-82
2023/04/16 07:02:36;;;;;;;6.35;3.75;;;;;;;;;;5076033;28;20028;-82
2023/04/16 07:05:02;;;;;;;6.43;4.00;;;;;;;;;;5076123;28;20402;-82
2023/04/16 07:07:27;;;;;;;6.82;3.88;;;;;;;;;;5066819;28;20045;-82
2023/04/16 07:09:52;;;;;;;6.20;3.70;;;;;;;;;;5056356;28;20037;-83
2023/04/16 07:12:19;;;;;;;6.60;4.18;;;;;;;;;;5074118;28;20042;-84
2023/04/16 07:14:45;;;;;;;5.78;4.00;;;;;;;;;;5056064;28;20024;-84
2023/04/16 07:17:11;;;;;;;7.93;4.10;;;;;;;;;;5056052;28;20036;-84
2023/04/16 07:19:36;;;;;;;7.13;4.18;;;;;;;;;;5039499;28;20082;-84
2023/04/16 07:22:02;;;;;;;8.65;3.92;;;;;;;;;;5074264;28;20098;-83
2023/04/16 07:24:27;;;;;;;6.38;3.70;;;;;;;;;;5055998;28;20059;-84
2023/04/16 07:26:52;;;;;;;8.35;4.50;;;;;;;;;;5055867;28;20031;-84
2023/04/16 07:29:18;;;;;;;8.40;3.95;;;;;;;;;;5073884;28;20029;-84
2023/04/16 07:31:44;;;;;;;8.25;4.18;;;;;;;;;;5073682;28;20475;-84
2023/04/16 07:34:09;;;;;;;8.18;4.55;;;;;;;;;;5055702;28;20047;-83
2023/04/16 07:36:35;;;;;;;5.82;4.05;;;;;;;;;;5073546;28;20035;-85
2023/04/16 07:39:00;;;;;;;9.18;4.07;;;;;;;;;;5039404;28;20051;-84
2023/04/16 07:41:26;;;;;;;6.22;4.10;;;;;;;;;;5055673;28;20102;-84
2023/04/16 07:43:51;;;;;;;5.95;3.53;;;;;;;;;;5038957;28;20022;-84
2023/04/16 07:46:16;;;;;;;6.28;3.78;;;;;;;;;;5055486;28;20032;-83
2023/04/16 07:48:42;;;;;;;7.82;3.90;;;;;;;;;;5055677;28;20455;-84
2023/04/16 07:51:07;;;;;;;5.47;3.88;;;;;;;;;;5073410;28;20025;-82
2023/04/16 07:53:33;;;;;;;6.00;3.90;;;;;;;;;;5055890;28;20391;-84
2023/04/16 07:55:58;;;;;;;5.53;4.00;;;;;;;;;;5038354;28;20115;-87
2023/04/16 07:58:23;;;;;;;4.55;3.58;;;;;;;;;;5038885;28;20047;-89
2023/04/16 08:00:49;;;;;;;6.47;3.95;;;;;;;;;;5055775;28;20032;-88
2023/04/16 08:03:15;;;;;;;7.53;3.88;;;;;;;;;;5073371;28;20555;-88
2023/04/16 08:05:40;;;;;;;7.10;4.10;;;;;;;;;;5055130;28;20487;-85
2023/04/16 08:08:05;;;;;;;8.27;3.97;;;;;;;;;;5055026;28;20139;-85
2023/04/16 08:10:32;;;;;;;7.78;3.90;;;;;;;;;;5055114;28;20475;-85
2023/04/16 08:12:59;;;;;;;7.30;3.67;;;;;;;;;;5055103;28;20035;-85
2023/04/16 08:15:25;;;;;;;8.25;4.43;;;;;;;;;;5074275;28;20537;-84
2023/04/16 08:17:50;;;;;;;7.43;3.53;;;;;;;;;;5073697;28;20028;-85
2023/04/16 08:20:16;;;;;;;7.90;3.97;;;;;;;;;;5055543;28;20024;-82
2023/04/16 08:22:41;;;;;;;6.78;3.17;;;;;;;;;;5073211;28;20032;-84
2023/04/16 08:25:07;;;;;;;6.85;3.65;;;;;;;;;;5054791;28;20032;-84
2023/04/16 08:27:32;;;;;;;11.90;4.10;;;;;;;;;;5072979;28;20039;-86
2023/04/16 08:29:59;;;;;;;4.97;3.90;;;;;;;;;;5038401;28;20036;-85
2023/04/16 08:32:25;;;;;;;6.80;3.83;;;;;;;;;;5055111;28;20044;-85
2023/04/16 08:34:51;;;;;;;6.78;3.63;;;;;;;;;;5038433;28;20028;-86
2023/04/16 08:37:16;;;;;;;6.95;3.75;;;;;;;;;;5055220;28;20107;-85
2023/04/16 08:39:42;;;;;;;10.52;3.88;;;;;;;;;;5054958;28;20079;-86
2023/04/16 08:42:13;;;;;;;8.18;4.15;;;;;;;;;;5072691;28;20028;-85
2023/04/16 08:44:43;;;;;;;7.15;4.10;;;;;;;;;;5073141;28;20049;-86
2023/04/16 08:47:11;;;;;;;6.22;3.92;;;;;;;;;;5055043;28;20386;-87
2023/04/16 08:49:42;;;;;;;7.72;4.30;;;;;;;;;;5041266;28;20033;-91
2023/04/16 08:52:09;;;;;;;8.45;4.25;;;;;;;;;;5066674;28;20024;-89
2023/04/16 08:54:38;;;;;;;10.10;4.13;;;;;;;;;;5040857;28;20021;-90
2023/04/16 08:57:05;;;;;;;6.75;3.90;;;;;;;;;;5039923;28;20029;-91
2023/04/16 08:59:31;;;;;;;8.55;4.65;;;;;;;;;;5039600;28;20031;-87
2023/04/16 09:01:57;;;;;;;7.88;4.45;;;;;;;;;;5055806;28;20021;-89
2023/04/16 09:04:27;;;;;;;18.42;6.60;;;;;;;;;;5039742;28;20036;-90
2023/04/16 09:06:54;;;;;;;16.27;6.45;;;;;;;;;;5057927;28;20107;-89
2023/04/16 09:09:20;;;;;;;23.63;7.53;;;;;;;;;;5078418;28;20024;-83
2023/04/16 09:11:49;;;;;;;17.98;6.57;;;;;;;;;;5058425;28;20502;-84
2023/04/16 09:14:15;;;;;;;18.27;6.57;;;;;;;;;;5093498;28;20070;-87
2023/04/16 09:16:41;;;;;;;18.13;7.45;;;;;;;;;;5079009;28;20449;-88
2023/04/16 09:19:06;;;;;;;14.65;6.95;;;;;;;;;;5079336;28;20016;-89
2023/04/16 09:21:31;;;;;;;14.63;6.35;;;;;;;;;;5045471;28;20047;-88
2023/04/16 09:23:58;;;;;;;14.95;6.90;;;;;;;;;;5091791;28;20035;-90
2023/04/16 09:26:25;;;;;;;16.60;7.20;;;;;;;;;;5070266;28;20136;-90
2023/04/16 09:28:50;;;;;;;17.02;6.38;;;;;;;;;;5061106;28;20033;-90
2023/04/16 09:31:17;;;;;;;14.40;6.30;;;;;;;;;;5057270;28;20032;-91
2023/04/16 09:33:43;;;;;;;15.75;6.68;;;;;;;;;;5064256;28;20036;-91
2023/04/16 09:36:09;;;;;;;14.50;5.45;;;;;;;;;;5063204;28;20030;-90
2023/04/16 09:38:48;;;;;;;12.88;5.55;;;;;;;;;;5079569;28;20024;-91
2023/04/16 09:41:17;;;;;;;9.82;5.03;;;;;;;;;;5058921;28;20021;-90
2023/04/16 09:43:56;;;;;;;13.93;5.10;;;;;;;;;;5062354;28;20050;-88
2023/04/16 09:46:22;;;;;;;10.60;5.20;;;;;;;;;;5061888;28;20028;-91
2023/04/16 09:48:48;;;;;;;7.57;4.75;;;;;;;;;;5059111;28;20032;-92
2023/04/16 09:51:13;;;;;;;17.75;5.32;;;;;;;;;;5039964;28;20402;-91
2023/04/16 09:53:39;;;;;;;11.05;5.25;;;;;;;;;;5043672;28;20082;-90
2023/04/16 09:56:05;;;;;;;9.70;5.35;;;;;;;;;;5075922;28;20032;-91
2023/04/16 09:58:31;;;;;;;12.68;5.28;;;;;;;;;;5062807;28;20059;-91
2023/04/16 10:01:07;;;;;;;10.98;4.95;;;;;;;;;;5043377;28;20181;-91
2023/04/16 10:03:34;;;;;;;9.57;4.80;;;;;;;;;;5059299;28;20536;-88
2023/04/16 10:06:19;;;;;;;7.57;4.68;;;;;;;;;;5057298;28;20032;-92
2023/04/16 10:08:48;;;;;;;7.32;4.13;;;;;;;;;;5063852;28;20048;-93
2023/04/16 10:11:15;;;;;;;6.53;3.90;;;;;;;;;;5060525;28;20546;-93
2023/04/16 10:13:40;;;;;;;9.27;4.72;;;;;;;;;;5066429;28;20028;-93
2023/04/16 10:16:07;;;;;;;7.03;4.45;;;;;;;;;;5071651;28;20035;-91
2023/04/16 10:18:35;;;;;;;9.20;4.38;;;;;;;;;;5065649;28;20375;-91
2023/04/16 10:21:01;;;;;;;11.20;5.32;;;;;;;;;;5061644;28;20449;-92
2023/04/16 10:23:26;;;;;;;7.22;4.68;;;;;;;;;;5058151;28;20115;-91
2023/04/16 10:25:53;;;;;;;9.65;4.72;;;;;;;;;;5060943;28;20439;-87
2023/04/16 10:28:19;;;;;;;16.23;5.20;;;;;;;;;;5095526;28;20026;-89
2023/04/16 10:30:51;;;;;;;10.85;5.10;;;;;;;;;;5060395;28;20409;-85
2023/04/16 10:33:21;;;;;;;9.82;4.68;;;;;;;;;;5061104;28;20060;-92
2023/04/16 10:35:48;;;;;;;10.45;5.18;;;;;;;;;;5060435;28;20445;-87
2023/04/16 10:38:24;;;;;;;12.70;5.25;;;;;;;;;;5077160;28;20096;-91
2023/04/16 10:40:50;;;;;;;14.15;5.80;;;;;;;;;;5060508;28;20027;-84
2023/04/16 10:43:18;;;;;;;13.10;5.20;;;;;;;;;;5095120;28;20028;-86
2023/04/16 10:45:44;;;;;;;17.77;4.90;;;;;;;;;;5066074;28;20501;-82
2023/04/16 10:48:10;;;;;;;10.25;5.03;;;;;;;;;;5077586;28;20040;-85
2023/04/16 10:50:36;;;;;;;15.35;6.28;;;;;;;;;;5061057;28;20031;-83
2023/04/16 10:53:18;;;;;;;27.98;8.35;;;;;;;;;;5095696;28;20044;-82
2023/04/16 10:55:56;;;;;;;21.00;7.78;;;;;;;;;;5094641;28;20107;-85
2023/04/16 10:58:29;;;;;;;27.33;7.88;;;;;;;;;;5076305;28;20103;-84
2023/04/16 11:00:54;;;;;;;17.90;7.30;;;;;;;;;;5076671;28;20026;-84
2023/04/16 11:03:19;;;;;;;21.17;7.85;;;;;;;;;;5076242;28;20031;-86
2023/04/16 11:05:48;;;;;;;20.23;7.75;;;;;;;;;;5077245;28;20028;-83
2023/04/16 11:08:15;;;;;;;22.85;7.65;;;;;;;;;;5076493;28;20387;-84
2023/04/16 11:10:41;;;;;;;20.35;7.13;;;;;;;;;;5076126;28;20538;-84
2023/04/16 11:13:07;;;;;;;16.55;6.80;;;;;;;;;;5076235;28;20135;-85
2023/04/16 11:15:33;;;;;;;15.00;6.85;;;;;;;;;;5076227;28;20032;-84
2023/04/16 11:17:59;;;;;;;12.57;6.03;;;;;;;;;;5075893;28;20027;-85
2023/04/16 11:20:26;;;;;;;15.35;6.50;;;;;;;;;;5059240;28;20115;-85
2023/04/16 11:22:53;;;;;;;14.20;5.90;;;;;;;;;;5076154;28;20031;-84
2023/04/16 11:25:21;;;;;;;11.88;5.40;;;;;;;;;;5094061;28;20489;-88
2023/04/16 11:27:46;;;;;;;12.32;5.95;;;;;;;;;;5076025;28;20024;-78
2023/04/16 11:30:18;;;;;;;13.85;6.22;;;;;;;;;;5095467;28;20383;-84
2023/04/16 11:32:45;;;;;;;13.95;5.28;;;;;;;;;;5095444;28;20085;-84
2023/04/16 11:35:16;;;;;;;15.98;5.30;;;;;;;;;;5094536;28;20035;-82
2023/04/16 11:37:41;;;;;;;10.10;4.88;;;;;;;;;;5058790;28;20024;-83
2023/04/16 11:40:11;;;;;;;9.90;5.40;;;;;;;;;;5093632;28;20016;-83
2023/04/16 11:42:40;;;;;;;11.00;5.07;;;;;;;;;;5076576;28;20102;-83
2023/04/16 11:45:07;;;;;;;11.43;4.70;;;;;;;;;;5076035;28;20023;-83
2023/04/16 11:47:44;;;;;;;12.48;4.55;;;;;;;;;;5075492;28;20055;-85
2023/04/16 11:50:23;;;;;;;9.35;4.53;;;;;;;;;;5093474;28;20032;-83
2023/04/16 11:52:50;;;;;;;8.35;4.43;;;;;;;;;;5093975;28;20032;-84
2023/04/16 11:55:15;;;;;;;11.98;4.45;;;;;;;;;;5075782;28;20382;-85
2023/04/16 11:57:41;;;;;;;8.55;4.63;;;;;;;;;;5093549;28;20028;-85
2023/04/16 12:00:12;;;;;;;10.20;4.50;;;;;;;;;;5093411;28;20046;-86
2023/04/16 12:02:45;;;;;;;10.18;4.68;;;;;;;;;;5093410;28;20028;-86
2023/04/16 12:05:33;;;;;;;6.57;4.45;;;;;;;;;;5075293;28;20482;-85
2023/04/16 12:08:03;;;;;;;10.63;4.93;;;;;;;;;;5093941;28;20044;-87
2023/04/16 12:10:31;;;;;;;10.88;4.53;;;;;;;;;;5059609;28;20164;-87
2023/04/16 12:13:09;;;;;;;12.00;3.85;;;;;;;;;;5076480;28;20016;-83
2023/04/16 12:15:45;;;;;;;12.65;4.28;;;;;;;;;;5075301;28;20027;-86
2023/04/16 12:18:11;;;;;;;9.25;4.30;;;;;;;;;;5093725;28;20498;-86
2023/04/16 12:20:40;;;;;;;8.77;4.95;;;;;;;;;;5095293;28;20044;-84
2023/04/16 12:23:07;;;;;;;10.88;4.72;;;;;;;;;;5078069;28;20032;-86
2023/04/16 12:25:32;;;;;;;19.55;5.00;;;;;;;;;;5093764;28;20470;-88
2023/04/16 12:27:58;;;;;;;10.55;4.93;;;;;;;;;;5094050;28;20020;-87
2023/04/16 12:30:27;;;;;;;12.63;4.78;;;;;;;;;;5075892;28;20431;-85
2023/04/16 12:33:13;;;;;;;21.38;5.22;;;;;;;;;;5075975;28;20486;-86
2023/04/16 12:35:40;;;;;;;22.20;4.85;;;;;;;;;;5093298;28;20042;-85
2023/04/16 12:38:09;;;;;;;9.27;4.43;;;;;;;;;;5076198;28;20103;-85
2023/04/16 12:40:35;;;;;;;13.90;5.10;;;;;;;;;;5095289;28;20024;-86
2023/04/16 12:43:01;;;;;;;7.40;4.05;;;;;;;;;;5050929;28;20059;-85
2023/04/16 12:45:26;;;;;;;6.05;4.38;;;;;;;;;;5077428;28;20102;-85
2023/04/16 12:47:52;;;;;;;6.68;4.55;;;;;;;;;;5078965;28;20103;-85
2023/04/16 12:50:17;;;;;;;8.73;4.85;;;;;;;;;;5079057;28;20031;-86
2023/04/16 12:52:43;;;;;;;9.73;4.72;;;;;;;;;;5079180;28;20036;-87
2023/04/16 12:55:09;;;;;;;7.90;4.70;;;;;;;;;;5079703;28;20032;-85
2023/04/16 12:57:34;;;;;;;20.65;5.03;;;;;;;;;;5079208;28;20042;-86
2023/04/16 13:00:00;;;;;;;7.68;4.68;;;;;;;;;;5079008;28;20110;-87
2023/04/16 13:02:26;;;;;;;15.27;4.55;;;;;;;;;;5061943;28;20075;-87
2023/04/16 13:04:52;;;;;;;8.93;4.78;;;;;;;;;;5058522;28;20037;-87
2023/04/16 13:07:18;;;;;;;10.10;4.57;;;;;;;;;;5058877;28;20530;-85
2023/04/16 13:09:44;;;;;;;9.48;4.28;;;;;;;;;;5078077;28;20107;-85
2023/04/16 13:12:09;;;;;;;9.50;4.75;;;;;;;;;;5097015;28;20024;-86
2023/04/16 13:14:36;;;;;;;8.65;4.60;;;;;;;;;;5078354;28;20039;-86
2023/04/16 13:17:02;;;;;;;10.30;5.13;;;;;;;;;;5078432;28;20031;-86
2023/04/16 13:19:28;;;;;;;10.63;4.30;;;;;;;;;;5080296;28;20118;-86
2023/04/16 13:21:53;;;;;;;6.93;4.32;;;;;;;;;;5098389;28;20067;-86
2023/04/16 13:24:19;;;;;;;9.38;4.70;;;;;;;;;;5061595;28;20039;-86
2023/04/16 13:26:44;;;;;;;11.38;4.50;;;;;;;;;;5078109;28;20110;-87
2023/04/16 13:29:10;;;;;;;7.93;4.38;;;;;;;;;;5096135;28;20501;-87
2023/04/16 13:31:36;;;;;;;8.15;4.32;;;;;;;;;;5096783;28;20034;-86
2023/04/16 13:34:02;;;;;;;6.68;4.40;;;;;;;;;;5078177;28;20032;-87
2023/04/16 13:36:28;;;;;;;7.82;4.07;;;;;;;;;;5078542;28;20494;-87
2023/04/16 13:38:54;;;;;;;9.50;4.53;;;;;;;;;;5078529;28;20410;-86
2023/04/16 13:41:19;;;;;;;7.22;4.38;;;;;;;;;;5077756;28;20035;-87
2023/04/16 13:43:45;;;;;;;7.97;4.43;;;;;;;;;;5061204;28;20538;-87
2023/04/16 13:46:10;;;;;;;10.32;4.40;;;;;;;;;;5095714;28;20114;-87
2023/04/16 13:48:36;;;;;;;7.78;3.80;;;;;;;;;;5060944;28;20028;-86
2023/04/16 13:51:02;;;;;;;7.50;4.00;;;;;;;;;;5096041;28;20495;-85
2023/04/16 13:53:27;;;;;;;6.20;4.10;;;;;;;;;;5097479;28;20028;-84
2023/04/16 13:55:52;;;;;;;7.38;4.13;;;;;;;;;;5094836;28;20042;-85
2023/04/16 13:58:18;;;;;;;7.30;4.38;;;;;;;;;;5095804;28;20024;-85
2023/04/16 14:00:44;;;;;;;9.45;4.13;;;;;;;;;;5077948;28;20056;-87
2023/04/16 14:03:09;;;;;;;6.20;4.18;;;;;;;;;;5077685;28;20471;-88
2023/04/16 14:05:35;;;;;;;7.57;3.95;;;;;;;;;;5077740;28;20047;-88
2023/04/16 14:08:00;;;;;;;8.48;4.03;;;;;;;;;;5086296;28;20139;-88
2023/04/16 14:10:25;;;;;;;9.15;4.30;;;;;;;;;;5024155;28;20032;-90
2023/04/16 14:12:51;;;;;;;7.35;4.10;;;;;;;;;;5057339;28;20043;-87
2023/04/16 14:15:17;;;;;;;9.45;4.25;;;;;;;;;;5075404;28;20024;-86
2023/04/16 14:17:43;;;;;;;15.75;5.13;;;;;;;;;;5057706;28;20025;-87
2023/04/16 14:20:11;;;;;;;8.93;4.70;;;;;;;;;;5057293;28;20637;-86
2023/04/16 14:22:37;;;;;;;7.57;4.20;;;;;;;;;;5041530;28;20041;-86
2023/04/16 14:25:02;;;;;;;7.65;4.13;;;;;;;;;;5061073;28;20105;-86
2023/04/16 14:27:28;;;;;;;8.05;3.80;;;;;;;;;;5058782;28;20040;-86
2023/04/16 14:29:54;;;;;;;8.43;4.07;;;;;;;;;;5057146;28;20074;-86
2023/04/16 14:32:20;;;;;;;8.18;4.40;;;;;;;;;;5074872;28;20029;-86
2023/04/16 14:34:45;;;;;;;6.93;4.32;;;;;;;;;;5074921;28;20033;-86
2023/04/16 14:37:11;;;;;;;11.60;4.28;;;;;;;;;;5074706;28;20028;-86